createdAt,value
2019-02-24T00:01:43.933Z,82.80
2019-02-24T00:04:14.803Z,82.20
2019-02-24T00:06:46.100Z,83.80
2019-02-24T00:09:16.876Z,82.40
2019-02-24T00:11:47.766Z,83.40
2019-02-24T00:14:18.644Z,82.80
2019-02-24T00:16:49.506Z,82.30
2019-02-24T00:19:20.612Z,82.00
2019-02-24T00:21:51.391Z,82.40
2019-02-24T00:24:22.236Z,82.20
2019-02-24T00:26:53.272Z,82.50
2019-02-24T00:29:24.117Z,83.20
2019-02-24T00:31:54.947Z,82.50
2019-02-24T00:34:25.743Z,83.10
2019-02-24T00:36:56.520Z,82.60
2019-02-24T00:39:27.283Z,83.80
2019-02-24T00:41:58.144Z,83.50
2019-02-24T00:44:28.923Z,83.30
2019-02-24T00:46:59.860Z,83.50
2019-02-24T00:49:30.631Z,83.10
2019-02-24T00:52:01.464Z,83.50
2019-02-24T00:54:32.326Z,81.40
2019-02-24T00:57:03.125Z,80.60
2019-02-24T00:59:34.085Z,81.00
2019-02-24T01:02:04.972Z,80.20
2019-02-24T01:04:36.876Z,81.60
2019-02-24T01:07:09.066Z,81.40
2019-02-24T01:09:40.357Z,79.40
2019-02-24T01:12:11.202Z,79.80
2019-02-24T01:14:43.037Z,78.70
2019-02-24T01:17:14.149Z,78.50
2019-02-24T01:19:45.048Z,78.70
2019-02-24T01:22:17.007Z,78.50
2019-02-24T01:24:47.836Z,80.00
2019-02-24T01:27:18.615Z,79.30
2019-02-24T01:29:49.493Z,78.80
2019-02-24T01:32:20.516Z,78.40
2019-02-24T01:34:51.299Z,78.50
2019-02-24T01:37:22.086Z,79.10
2019-02-24T01:39:52.862Z,79.00
2019-02-24T01:42:23.658Z,78.70
2019-02-24T01:44:54.430Z,78.30
2019-02-24T01:47:25.386Z,77.80
2019-02-24T01:49:56.181Z,76.60
2019-02-24T01:52:27.047Z,76.00
2019-02-24T01:54:57.812Z,76.90
2019-02-24T01:57:28.614Z,76.00
2019-02-24T01:59:59.363Z,75.50
2019-02-24T02:02:30.463Z,77.10
2019-02-24T02:05:01.320Z,75.40
2019-02-24T02:07:33.346Z,76.10
2019-02-24T02:10:04.354Z,75.90
2019-02-24T02:12:35.265Z,76.60
2019-02-24T02:15:06.303Z,76.40
2019-02-24T02:17:37.348Z,75.30
2019-02-24T02:20:08.494Z,76.20
2019-02-24T02:22:39.317Z,76.50
2019-02-24T02:25:10.539Z,76.40
2019-02-24T02:27:41.741Z,74.90
2019-02-24T02:30:12.659Z,73.70
2019-02-24T02:32:43.568Z,74.10
2019-02-24T02:35:14.316Z,73.80
2019-02-24T02:37:45.158Z,72.70
2019-02-24T02:40:15.986Z,71.70
2019-02-24T02:42:46.960Z,71.20
2019-02-24T02:45:17.749Z,69.80
2019-02-24T02:47:48.742Z,69.80
2019-02-24T02:50:19.734Z,71.30
2019-02-24T02:52:50.560Z,71.20
2019-02-24T02:55:21.346Z,71.30
2019-02-24T02:57:52.144Z,69.30
2019-02-24T03:00:34.401Z,69.30
2019-02-24T03:03:05.688Z,70.80
2019-02-24T03:05:36.524Z,70.40
2019-02-24T03:08:09.577Z,71.10
2019-02-24T03:10:40.416Z,71.00
2019-02-24T03:13:11.281Z,70.80
2019-02-24T03:15:42.210Z,70.20
2019-02-24T03:18:13.210Z,70.60
2019-02-24T03:20:44.445Z,70.50
2019-02-24T03:23:15.500Z,70.30
2019-02-24T03:25:46.380Z,70.80
2019-02-24T03:28:17.342Z,73.70
2019-02-24T03:30:48.152Z,73.00
2019-02-24T03:33:19.295Z,70.80
2019-02-24T03:35:50.532Z,72.30
2019-02-24T03:38:21.331Z,73.20
2019-02-24T03:40:52.437Z,72.20
2019-02-24T03:43:23.695Z,72.30
2019-02-24T03:45:54.491Z,71.80
2019-02-24T03:48:25.376Z,71.30
2019-02-24T03:50:56.348Z,70.80
2019-02-24T03:53:27.410Z,70.90
2019-02-24T03:55:58.226Z,69.80
2019-02-24T03:58:29.552Z,70.50
2019-02-24T04:01:00.431Z,71.70
2019-02-24T04:03:31.371Z,71.80
2019-02-24T04:06:02.155Z,72.20
2019-02-24T04:08:32.975Z,73.30
2019-02-24T04:11:03.863Z,74.30
2019-02-24T04:13:34.669Z,77.60
2019-02-24T04:16:05.470Z,76.70
2019-02-24T04:18:36.300Z,75.20
2019-02-24T04:21:07.931Z,74.80
2019-02-24T04:23:38.808Z,74.50
2019-02-24T04:26:09.627Z,74.60
2019-02-24T04:28:40.499Z,73.90
2019-02-24T04:31:11.355Z,74.40
2019-02-24T04:33:42.539Z,74.40
2019-02-24T04:36:13.604Z,74.80
2019-02-24T04:38:44.344Z,74.60
2019-02-24T04:41:15.210Z,75.50
2019-02-24T04:43:46.229Z,76.70
2019-02-24T04:46:17.096Z,76.10
2019-02-24T04:48:47.877Z,76.20
2019-02-24T04:51:19.007Z,74.90
2019-02-24T04:53:49.773Z,75.70
2019-02-24T04:56:20.576Z,75.50
2019-02-24T04:58:51.456Z,76.20
2019-02-24T05:01:22.238Z,76.20
2019-02-24T05:03:53.059Z,74.50
2019-02-24T05:06:23.862Z,75.00
2019-02-24T05:08:54.736Z,75.50
2019-02-24T05:11:25.508Z,75.40
2019-02-24T05:13:56.359Z,75.10
2019-02-24T05:16:27.108Z,76.00
2019-02-24T05:18:57.901Z,77.30
2019-02-24T05:21:28.663Z,76.20
2019-02-24T05:23:59.468Z,77.00
2019-02-24T05:26:30.303Z,77.20
2019-02-24T05:29:01.456Z,78.40
2019-02-24T05:31:32.253Z,77.00
2019-02-24T05:34:03.038Z,74.40
2019-02-24T05:36:33.956Z,74.80
2019-02-24T05:39:05.730Z,75.80
2019-02-24T05:41:36.490Z,74.20
2019-02-24T05:44:07.345Z,73.80
2019-02-24T05:46:38.245Z,73.90
2019-02-24T05:49:09.094Z,75.60
2019-02-24T05:51:39.832Z,72.70
2019-02-24T05:54:10.652Z,71.30
2019-02-24T05:56:41.455Z,70.60
2019-02-24T05:59:12.305Z,70.60
2019-02-24T06:01:43.030Z,70.10
2019-02-24T06:04:14.094Z,73.20
2019-02-24T06:06:45.897Z,70.40
2019-02-24T06:09:16.773Z,71.00
2019-02-24T06:11:47.555Z,71.50
2019-02-24T06:14:18.626Z,72.40
2019-02-24T06:16:49.376Z,74.90
2019-02-24T06:19:20.232Z,73.00
2019-02-24T06:21:51.013Z,73.70
2019-02-24T06:24:21.819Z,71.30
2019-02-24T06:26:52.579Z,75.00
2019-02-24T06:29:23.423Z,74.90
2019-02-24T06:31:54.214Z,72.30
2019-02-24T06:34:25.280Z,72.20
2019-02-24T06:36:56.023Z,70.80
2019-02-24T06:39:26.889Z,69.80
2019-02-24T06:41:57.732Z,69.80
2019-02-24T06:44:28.471Z,70.50
2019-02-24T06:46:59.278Z,70.90
2019-02-24T06:49:30.007Z,68.00
2019-02-24T06:52:01.204Z,68.90
2019-02-24T06:54:32.407Z,66.20
2019-02-24T06:57:03.210Z,67.30
2019-02-24T06:59:33.996Z,67.10
2019-02-24T07:02:04.834Z,67.50
2019-02-24T07:04:36.032Z,66.30
2019-02-24T07:07:06.809Z,64.30
2019-02-24T07:09:37.706Z,65.80
2019-02-24T07:12:08.451Z,63.90
2019-02-24T07:14:39.235Z,64.40
2019-02-24T07:17:10.010Z,62.50
2019-02-24T07:19:40.776Z,60.80
2019-02-24T07:22:11.527Z,60.60
2019-02-24T07:24:42.263Z,63.00
2019-02-24T07:27:21.290Z,59.60
2019-02-24T07:29:52.248Z,58.00
2019-02-24T07:32:25.328Z,57.20
2019-02-24T07:34:56.226Z,55.30
2019-02-24T07:37:26.961Z,54.70
2019-02-24T07:39:58.844Z,54.20
2019-02-24T07:42:29.699Z,53.20
2019-02-24T07:45:00.536Z,53.30
2019-02-24T07:47:31.326Z,52.50
2019-02-24T07:50:02.092Z,50.60
2019-02-24T07:52:32.839Z,46.50
2019-02-24T07:55:03.941Z,42.70
2019-02-24T07:57:34.750Z,40.50
2019-02-24T08:00:06.078Z,39.80
2019-02-24T08:02:36.991Z,38.90
2019-02-24T08:05:07.929Z,38.50
2019-02-24T08:07:38.830Z,38.20
2019-02-24T08:10:10.101Z,37.20
2019-02-24T08:12:40.967Z,36.20
2019-02-24T08:15:11.902Z,36.10
2019-02-24T08:17:43.119Z,36.40
2019-02-24T08:20:14.317Z,36.90
2019-02-24T08:22:45.123Z,37.30
2019-02-24T08:25:16.111Z,35.90
2019-02-24T08:27:54.920Z,34.90
2019-02-24T08:30:25.040Z,34.40
2019-02-24T08:32:55.870Z,31.80
2019-02-24T08:35:26.689Z,31.30
2019-02-24T08:37:57.994Z,29.60
2019-02-24T08:40:29.071Z,29.30
2019-02-24T08:42:59.975Z,28.10
2019-02-24T08:45:30.896Z,26.00
2019-02-24T08:48:01.764Z,24.70
2019-02-24T08:50:32.592Z,24.00
2019-02-24T08:53:04.018Z,24.10
2019-02-24T08:55:34.836Z,23.80
2019-02-24T08:58:05.579Z,24.10
2019-02-24T09:00:36.607Z,24.30
2019-02-24T09:03:07.404Z,23.50
2019-02-24T09:05:38.155Z,23.30
2019-02-24T09:08:08.967Z,22.60
2019-02-24T09:10:39.780Z,21.80
2019-02-24T09:13:10.568Z,21.00
2019-02-24T09:15:41.308Z,20.70
2019-02-24T09:18:12.085Z,21.00
2019-02-24T09:20:42.973Z,21.10
2019-02-24T09:23:13.712Z,22.00
2019-02-24T09:25:44.833Z,22.70
2019-02-24T09:28:15.697Z,23.10
2019-02-24T09:30:46.488Z,23.00
2019-02-24T09:33:17.552Z,23.60
2019-02-24T09:35:48.390Z,23.20
2019-02-24T09:38:19.219Z,23.40
2019-02-24T09:40:50.112Z,23.90
2019-02-24T09:43:20.984Z,23.10
2019-02-24T09:45:51.988Z,22.30
2019-02-24T09:48:22.759Z,21.80
2019-02-24T09:50:53.553Z,22.40
2019-02-24T09:53:24.313Z,21.40
2019-02-24T09:55:56.258Z,22.00
2019-02-24T09:58:27.036Z,20.90
2019-02-24T10:00:57.788Z,21.20
2019-02-24T10:03:28.583Z,21.00
2019-02-24T10:05:59.345Z,21.60
2019-02-24T10:08:30.112Z,22.00
2019-02-24T10:11:00.956Z,23.20
2019-02-24T10:13:32.259Z,22.30
2019-02-24T10:16:03.127Z,44.20
2019-02-24T10:18:33.901Z,36.00
2019-02-24T10:21:04.705Z,27.50
2019-02-24T10:23:35.642Z,28.20
2019-02-24T10:26:06.473Z,31.20
2019-02-24T10:28:37.279Z,29.10
2019-02-24T10:31:08.178Z,28.10
2019-02-24T10:33:39.209Z,28.60
2019-02-24T10:36:09.990Z,26.40
2019-02-24T10:38:40.741Z,27.40
2019-02-24T10:41:11.524Z,25.90
2019-02-24T10:43:42.354Z,28.10
2019-02-24T10:46:13.177Z,27.10
2019-02-24T10:48:44.298Z,26.30
2019-02-24T10:51:15.061Z,20.50
2019-02-24T10:53:45.846Z,20.20
2019-02-24T10:56:16.723Z,21.40
2019-02-24T10:58:47.528Z,22.50
2019-02-24T11:01:18.493Z,22.40
2019-02-24T11:03:49.311Z,23.30
2019-02-24T11:06:20.566Z,24.20
2019-02-24T11:08:51.326Z,24.40
2019-02-24T11:11:22.169Z,23.90
2019-02-24T11:13:52.921Z,24.40
2019-02-24T11:16:24.023Z,25.90
2019-02-24T11:18:55.116Z,25.70
2019-02-24T11:21:25.923Z,25.20
2019-02-24T11:23:56.763Z,25.70
2019-02-24T11:26:27.588Z,25.30
2019-02-24T11:28:58.426Z,25.40
2019-02-24T11:31:37.985Z,25.70
2019-02-24T11:34:02.774Z,25.20
2019-02-24T11:36:33.649Z,24.50
2019-02-24T11:39:06.122Z,26.00
2019-02-24T11:41:38.606Z,25.60
2019-02-24T11:44:09.409Z,26.40
2019-02-24T11:46:40.454Z,25.90
2019-02-24T11:51:44.496Z,25.80
2019-02-24T11:54:15.362Z,25.80
2019-02-24T11:56:46.221Z,25.90
2019-02-24T11:59:16.948Z,26.50
2019-02-24T12:01:48.069Z,25.40
2019-02-24T12:04:18.831Z,26.00
2019-02-24T12:06:49.815Z,25.10
2019-02-24T12:09:20.574Z,24.70
2019-02-24T12:11:51.698Z,24.70
2019-02-24T12:14:22.430Z,25.70
2019-02-24T12:16:53.168Z,25.40
2019-02-24T12:19:24.302Z,24.30
2019-02-24T12:21:55.646Z,24.50
2019-02-24T12:24:26.440Z,24.40
2019-02-24T12:26:57.139Z,23.60
2019-02-24T12:29:27.916Z,23.70
2019-02-24T12:31:58.669Z,24.10
2019-02-24T12:34:29.387Z,23.90
2019-02-24T12:37:00.470Z,23.90
2019-02-24T12:39:31.502Z,23.70
2019-02-24T12:42:02.762Z,23.50
2019-02-24T12:44:34.115Z,23.50
2019-02-24T12:47:05.258Z,23.40
2019-02-24T12:49:36.282Z,23.90
2019-02-24T12:52:07.323Z,23.20
2019-02-24T12:54:38.050Z,22.90
2019-02-24T12:57:08.796Z,23.60
2019-02-24T12:59:39.611Z,23.80
2019-02-24T13:02:10.383Z,23.50
2019-02-24T13:04:41.337Z,23.10
2019-02-24T13:07:12.065Z,23.50
2019-02-24T13:09:43.782Z,22.50
2019-02-24T13:12:15.113Z,22.70
2019-02-24T13:14:46.047Z,22.40
2019-02-24T13:17:16.894Z,23.30
2019-02-24T13:19:47.614Z,22.90
2019-02-24T13:22:19.379Z,21.80
2019-02-24T13:24:50.682Z,22.60
2019-02-24T13:27:21.387Z,22.90
2019-02-24T13:29:52.285Z,22.60
2019-02-24T13:32:23.099Z,22.30
2019-02-24T13:34:53.931Z,22.90
2019-02-24T13:37:24.658Z,22.20
2019-02-24T13:39:56.391Z,29.00
2019-02-24T13:42:28.146Z,46.30
2019-02-24T13:44:58.841Z,48.20
2019-02-24T13:47:29.953Z,47.20
2019-02-24T13:50:00.987Z,45.90
2019-02-24T13:52:31.712Z,45.70
2019-02-24T13:55:02.493Z,41.30
2019-02-24T13:57:33.574Z,40.50
2019-02-24T14:00:05.000Z,39.60
2019-02-24T14:02:35.806Z,36.60
2019-02-24T14:05:06.839Z,28.70
2019-02-24T14:07:37.670Z,35.70
2019-02-24T14:10:09.449Z,34.70
2019-02-24T14:12:40.370Z,31.30
2019-02-24T14:15:11.331Z,31.50
2019-02-24T14:17:42.553Z,31.50
2019-02-24T14:20:13.519Z,27.70
2019-02-24T14:22:44.433Z,32.20
2019-02-24T14:25:15.355Z,29.70
2019-02-24T14:27:46.222Z,29.00
2019-02-24T14:30:17.115Z,27.20
2019-02-24T14:32:47.929Z,27.80
2019-02-24T14:35:18.783Z,30.00
2019-02-24T14:37:49.586Z,30.80
2019-02-24T14:40:20.483Z,31.70
2019-02-24T14:42:51.287Z,30.50
2019-02-24T14:45:22.942Z,30.00
2019-02-24T14:47:53.814Z,32.30
2019-02-24T14:50:24.563Z,29.80
2019-02-24T14:52:55.294Z,31.00
2019-02-24T14:55:26.190Z,27.80
2019-02-24T14:57:56.927Z,30.80
2019-02-24T15:00:27.869Z,31.10
2019-02-24T15:02:58.654Z,31.30
2019-02-24T15:05:29.400Z,29.50
2019-02-24T15:08:00.532Z,27.20
2019-02-24T15:10:31.312Z,28.90
2019-02-24T15:13:02.309Z,30.00
2019-02-24T15:15:34.097Z,27.40
2019-02-24T15:18:05.265Z,29.80
2019-02-24T15:20:36.096Z,31.00
2019-02-24T15:23:06.923Z,29.80
2019-02-24T15:25:38.046Z,27.30
2019-02-24T15:28:08.830Z,30.00
2019-02-24T15:30:39.756Z,28.60
2019-02-24T15:33:10.805Z,30.60
2019-02-24T15:35:41.541Z,30.60
2019-02-24T15:38:12.411Z,28.90
2019-02-24T15:40:43.195Z,30.40
2019-02-24T15:43:14.176Z,29.90
2019-02-24T15:45:46.229Z,30.10
2019-02-24T15:48:16.995Z,30.10
2019-02-24T15:50:47.815Z,30.90
2019-02-24T15:53:19.623Z,30.30
2019-02-24T15:55:50.358Z,29.90
2019-02-24T15:58:21.227Z,29.90
2019-02-24T16:00:52.241Z,30.60
2019-02-24T16:03:23.089Z,29.70
2019-02-24T16:05:53.829Z,23.60
2019-02-24T16:08:24.760Z,23.70
2019-02-24T16:10:55.852Z,23.80
2019-02-24T16:13:26.606Z,26.00
2019-02-24T16:15:57.384Z,36.10
2019-02-24T16:18:28.187Z,27.90
2019-02-24T16:20:59.556Z,26.40
2019-02-24T16:23:30.392Z,27.20
2019-02-24T16:26:01.164Z,26.80
2019-02-24T16:28:32.296Z,27.70
2019-02-24T16:31:03.218Z,28.50
2019-02-24T16:33:34.381Z,27.90
2019-02-24T16:36:05.206Z,27.90
2019-02-24T16:38:36.001Z,27.60
2019-02-24T16:41:06.958Z,28.60
2019-02-24T16:43:37.793Z,29.20
2019-02-24T16:46:09.203Z,28.70
2019-02-24T16:48:41.425Z,29.30
2019-02-24T16:51:12.284Z,31.70
2019-02-24T16:53:43.279Z,31.70
2019-02-24T16:56:14.239Z,32.70
2019-02-24T16:58:45.005Z,34.20
2019-02-24T17:01:15.752Z,34.70
2019-02-24T17:03:48.143Z,34.90
2019-02-24T17:06:19.660Z,37.30
2019-02-24T17:08:51.860Z,36.80
2019-02-24T17:11:26.901Z,38.30
2019-02-24T17:13:58.022Z,37.50
2019-02-24T17:16:28.742Z,38.10
2019-02-24T17:18:59.643Z,38.70
2019-02-24T17:21:30.562Z,38.80
2019-02-24T17:24:01.365Z,39.90
2019-02-24T17:26:32.469Z,40.30
2019-02-24T17:29:03.477Z,38.90
2019-02-24T17:31:34.333Z,38.80
2019-02-24T17:34:05.181Z,40.80
2019-02-24T17:36:36.192Z,42.90
2019-02-24T17:39:07.293Z,42.60
2019-02-24T17:41:39.623Z,43.00
2019-02-24T17:44:10.495Z,43.50
2019-02-24T17:46:41.317Z,42.50
2019-02-24T17:49:12.150Z,44.00
2019-02-24T17:51:42.957Z,44.70
2019-02-24T17:54:13.708Z,46.50
2019-02-24T17:56:44.434Z,46.40
2019-02-24T17:59:15.409Z,45.50
2019-02-24T18:01:46.368Z,46.70
2019-02-24T18:04:19.149Z,47.60
2019-02-24T18:06:50.554Z,47.60
2019-02-24T18:09:21.691Z,46.60
2019-02-24T18:11:52.667Z,46.60
2019-02-24T18:14:24.803Z,48.80
2019-02-24T18:16:55.559Z,49.50
2019-02-24T18:19:26.355Z,50.00
2019-02-24T18:21:57.217Z,49.90
2019-02-24T18:24:28.370Z,51.10
2019-02-24T18:26:59.290Z,53.20
2019-02-24T18:29:30.435Z,53.70
2019-02-24T18:32:01.439Z,51.60
2019-02-24T18:34:32.176Z,50.60
2019-02-24T18:37:02.914Z,50.70
2019-02-24T18:39:33.665Z,50.10
2019-02-24T18:42:04.482Z,49.00
2019-02-24T18:44:35.286Z,50.40
2019-02-24T18:47:06.071Z,49.10
2019-02-24T18:49:37.108Z,48.30
2019-02-24T18:52:08.180Z,47.60
2019-02-24T18:54:39.049Z,50.10
2019-02-24T18:57:09.799Z,47.40
2019-02-24T18:59:41.652Z,47.60
2019-02-24T19:02:13.652Z,50.00
2019-02-24T19:04:47.345Z,48.90
2019-02-24T19:07:18.580Z,50.60
2019-02-24T19:09:49.318Z,50.10
2019-02-24T19:12:21.579Z,50.80
2019-02-24T19:14:57.597Z,51.30
2019-02-24T19:17:28.735Z,50.70
2019-02-24T19:19:59.623Z,51.40
2019-02-24T19:22:30.402Z,51.40
2019-02-24T19:25:01.387Z,49.80
2019-02-24T19:27:32.127Z,49.90
2019-02-24T19:30:02.894Z,49.50
2019-02-24T19:32:34.892Z,51.50
2019-02-24T19:35:06.039Z,52.30
2019-02-24T19:37:37.194Z,52.90
2019-02-24T19:40:10.103Z,53.40
2019-02-24T19:42:41.290Z,52.80
2019-02-24T19:45:13.571Z,54.30
2019-02-24T19:47:44.375Z,54.50
2019-02-24T19:50:16.251Z,55.50
2019-02-24T19:52:47.149Z,54.70
2019-02-24T19:55:18.074Z,55.20
2019-02-24T19:57:49.529Z,56.20
2019-02-24T20:00:21.147Z,56.60
2019-02-24T20:02:52.496Z,57.50
2019-02-24T20:05:23.727Z,57.00
2019-02-24T20:07:54.657Z,58.30
2019-02-24T20:10:25.446Z,59.70
2019-02-24T20:12:56.984Z,60.00
2019-02-24T20:15:28.470Z,59.70
2019-02-24T20:18:00.312Z,61.60
2019-02-24T20:20:32.217Z,61.00
2019-02-24T20:23:03.199Z,64.00
2019-02-24T20:25:34.188Z,68.00
2019-02-24T20:28:05.229Z,67.60
2019-02-24T20:30:36.301Z,68.50
2019-02-24T20:33:09.860Z,70.10
2019-02-24T20:35:44.415Z,70.50
2019-02-24T20:38:14.972Z,74.10
2019-02-24T20:40:45.986Z,75.90
2019-02-24T20:43:17.021Z,77.00
2019-02-24T20:45:47.741Z,77.40
2019-02-24T20:48:19.527Z,79.30
2019-02-24T20:50:51.225Z,81.70
2019-02-24T20:53:23.452Z,81.60
2019-02-24T20:55:54.213Z,81.60
2019-02-24T20:58:25.021Z,83.90
2019-02-24T21:00:56.379Z,81.70
2019-02-24T21:03:28.479Z,83.90
2019-02-24T21:05:59.206Z,84.30
2019-02-24T21:08:30.151Z,83.70
2019-02-24T21:11:00.955Z,84.70
2019-02-24T21:13:32.026Z,82.50
2019-02-24T21:16:02.786Z,78.80
2019-02-24T21:18:33.844Z,78.80
2019-02-24T21:21:04.861Z,82.50
2019-02-24T21:23:36.891Z,83.50
2019-02-24T21:26:07.943Z,81.80
2019-02-24T21:28:38.812Z,82.70
2019-02-24T21:31:09.712Z,82.80
2019-02-24T21:33:40.854Z,81.20
2019-02-24T21:36:11.655Z,81.40
2019-02-24T21:38:42.399Z,84.20
2019-02-24T21:41:13.775Z,83.20
2019-02-24T21:43:44.875Z,83.60
2019-02-24T21:46:15.702Z,82.80
2019-02-24T21:48:48.300Z,77.50
2019-02-24T21:51:19.026Z,76.50
2019-02-24T21:53:49.886Z,76.10
2019-02-24T21:56:20.609Z,74.90
2019-02-24T21:58:51.709Z,75.60
2019-02-24T22:01:22.774Z,74.90
2019-02-24T22:03:53.609Z,75.60
2019-02-24T22:06:24.673Z,78.50
2019-02-24T22:08:55.733Z,78.80
2019-02-24T22:11:26.584Z,79.90
2019-02-24T22:13:57.321Z,74.70
2019-02-24T22:16:28.116Z,75.40
2019-02-24T22:18:59.719Z,72.30
2019-02-24T22:21:30.422Z,71.80
2019-02-24T22:24:01.332Z,72.60
2019-02-24T22:26:33.111Z,73.50
2019-02-24T22:29:03.956Z,74.00
2019-02-24T22:31:34.775Z,76.10
2019-02-24T22:34:05.899Z,76.10
2019-02-24T22:36:36.699Z,78.60
2019-02-24T22:39:07.806Z,76.70
2019-02-24T22:41:40.037Z,75.80
2019-02-24T22:44:11.171Z,77.20
2019-02-24T22:46:41.912Z,70.80
2019-02-24T22:49:12.894Z,75.00
2019-02-24T22:51:44.049Z,75.70
2019-02-24T22:54:14.872Z,74.40
2019-02-24T22:56:47.287Z,77.90
2019-02-24T22:59:18.513Z,78.60
2019-02-24T23:01:49.920Z,78.90
2019-02-24T23:04:20.972Z,79.80
2019-02-24T23:06:51.729Z,74.70
2019-02-24T23:09:23.518Z,74.90
2019-02-24T23:11:54.754Z,76.70
2019-02-24T23:14:25.810Z,76.80
2019-02-24T23:16:56.768Z,75.70
2019-02-24T23:19:28.307Z,74.40
2019-02-24T23:21:59.763Z,74.10
2019-02-24T23:24:30.539Z,73.70
2019-02-24T23:27:01.421Z,74.80
2019-02-24T23:29:32.352Z,75.50
2019-02-24T23:32:03.304Z,76.30
2019-02-24T23:34:34.432Z,77.50
2019-02-24T23:37:05.284Z,79.60
2019-02-24T23:39:37.078Z,81.00
2019-02-24T23:42:08.070Z,82.00
2019-02-24T23:44:40.255Z,82.70
2019-02-24T23:47:11.041Z,82.40
2019-02-24T23:49:42.196Z,81.70
2019-02-24T23:52:13.458Z,83.70
2019-02-24T23:54:44.243Z,84.50
2019-02-24T23:57:15.004Z,84.50
2019-02-24T23:59:46.042Z,86.40
